Time;durP1;ratioP1;P1;durP2;ratioP2;P2;SDS_P1;SDS_P2;PMS_P1;PMS_P2;Temp;Humidity;BMP_temperature;BMP_pressure;BME280_temperature;BME280_humidity;BME280_pressure;Samples;Min_cycle;Max_cycle;Signal;HPM_P1;HPM_P2
2023/12/27 00:02:01;;;;;;;5.17;4.30;;;;;;;10.70;100.00;98754.97;4104385;28;20663;-81
2023/12/27 00:04:10;;;;;;;7.80;6.13;;;;;;;10.70;100.00;98752.38;4088725;28;20682;-81
2023/12/27 00:06:14;;;;;;;7.27;5.80;;;;;;;10.66;100.00;98756.94;4088063;28;21058;-82
2023/12/27 00:08:17;;;;;;;9.47;5.47;;;;;;;10.65;100.00;98760.47;4091171;28;20651;-81
2023/12/27 00:10:21;;;;;;;7.53;5.63;;;;;;;10.65;100.00;98757.84;4090771;28;21248;-82
2023/12/27 00:12:24;;;;;;;11.83;5.50;;;;;;;10.66;100.00;98771.72;4103951;28;20687;-81
2023/12/27 00:14:27;;;;;;;7.33;5.07;;;;;;;10.64;100.00;98763.16;4087923;28;20656;-81
2023/12/27 00:16:31;;;;;;;6.30;4.90;;;;;;;10.63;100.00;98771.91;4088746;28;20665;-82
2023/12/27 00:18:33;;;;;;;6.70;4.70;;;;;;;10.61;100.00;98755.50;4107287;28;20752;-80
2023/12/27 00:20:36;;;;;;;8.20;5.47;;;;;;;10.60;100.00;98754.69;4089097;28;20673;-80
2023/12/27 00:22:40;;;;;;;6.37;4.73;;;;;;;10.62;100.00;98757.19;4104427;28;20672;-82
2023/12/27 00:24:43;;;;;;;7.67;5.20;;;;;;;10.62;100.00;98755.41;4106563;28;21094;-81
2023/12/27 00:26:48;;;;;;;8.47;5.53;;;;;;;10.61;100.00;98756.34;4105916;28;21215;-81
2023/12/27 00:28:51;;;;;;;5.40;4.50;;;;;;;10.62;100.00;98750.19;4106855;28;20714;-81
2023/12/27 00:30:54;;;;;;;5.77;5.03;;;;;;;10.62;100.00;98750.19;4103222;28;20649;-81
2023/12/27 00:32:58;;;;;;;7.47;4.87;;;;;;;10.63;100.00;98757.09;4119840;28;20672;-81
2023/12/27 00:35:01;;;;;;;8.23;4.73;;;;;;;10.62;100.00;98754.59;4106523;28;20730;-80
2023/12/27 00:37:05;;;;;;;6.23;4.40;;;;;;;10.61;100.00;98753.72;4120974;28;20670;-82
2023/12/27 00:39:11;;;;;;;6.10;4.50;;;;;;;10.62;100.00;98749.38;4102861;28;21108;-81
2023/12/27 00:41:13;;;;;;;5.67;4.10;;;;;;;10.63;100.00;98762.31;4104874;28;20654;-82
2023/12/27 00:43:18;;;;;;;6.20;4.30;;;;;;;10.62;100.00;98765.84;4105927;28;20691;-80
2023/12/27 00:45:21;;;;;;;8.03;4.33;;;;;;;10.63;100.00;98766.69;4099758;28;20646;-81
2023/12/27 00:47:24;;;;;;;6.70;4.33;;;;;;;10.66;100.00;98769.09;4106466;28;20648;-81
2023/12/27 00:49:43;;;;;;;7.30;4.83;;;;;;;10.65;100.00;98770.88;4107577;28;20659;-81
2023/12/27 00:51:46;;;;;;;8.17;4.60;;;;;;;10.66;100.00;98769.09;4092205;28;20653;-81
2023/12/27 00:53:49;;;;;;;5.83;4.50;;;;;;;10.68;100.00;98769.88;4103959;28;21026;-81
2023/12/27 00:55:52;;;;;;;5.78;4.10;;;;;;;10.68;100.00;98770.72;4104127;28;20679;-81
2023/12/27 00:57:54;;;;;;;7.17;4.40;;;;;;;10.69;100.00;98767.19;4105833;28;20646;-81
2023/12/27 01:00:12;;;;;;;6.03;4.60;;;;;;;10.70;100.00;98762.78;4102559;28;20660;-82
2023/12/27 01:02:16;;;;;;;5.20;4.30;;;;;;;10.69;100.00;98761.09;4086892;28;20641;-83
2023/12/27 01:04:32;;;;;;;5.20;4.40;;;;;;;10.69;100.00;98754.16;4121778;28;21306;-82
2023/12/27 01:06:36;;;;;;;7.10;4.50;;;;;;;10.68;100.00;98752.44;4093465;28;20672;-82
2023/12/27 01:08:39;;;;;;;7.77;5.47;;;;;;;10.67;100.00;98748.16;4109789;28;20656;-81
2023/12/27 01:10:43;;;;;;;7.90;5.40;;;;;;;10.68;100.00;98749.00;4093534;28;20693;-81
2023/12/27 01:12:46;;;;;;;6.20;4.97;;;;;;;10.67;100.00;98753.38;4090509;28;20648;-80
2023/12/27 01:14:49;;;;;;;5.83;4.17;;;;;;;10.67;100.00;98747.31;4106732;28;20727;-81
2023/12/27 01:16:53;;;;;;;6.23;4.63;;;;;;;10.68;100.00;98754.22;4102942;28;20640;-80
2023/12/27 01:18:57;;;;;;;6.63;4.73;;;;;;;10.68;100.00;98762.06;4108283;28;20724;-80
2023/12/27 01:21:01;;;;;;;6.43;4.90;;;;;;;10.66;100.00;98761.28;4104674;28;20656;-81
2023/12/27 01:23:04;;;;;;;5.90;4.90;;;;;;;10.68;100.00;98759.44;4108751;28;20682;-81
2023/12/27 01:25:09;;;;;;;6.30;4.90;;;;;;;10.68;100.00;98751.63;4108746;28;21314;-81
2023/12/27 01:27:12;;;;;;;6.23;4.63;;;;;;;10.69;100.00;98750.66;4104598;28;20659;-81
2023/12/27 01:29:21;;;;;;;7.13;5.57;;;;;;;10.71;100.00;98746.22;4093780;28;21309;-82
2023/12/27 01:31:24;;;;;;;6.10;4.33;;;;;;;10.70;100.00;98752.38;4106369;28;20699;-80
2023/12/27 01:33:28;;;;;;;5.47;4.53;;;;;;;10.71;100.00;98744.44;4109935;28;21011;-82
2023/12/27 01:35:45;;;;;;;7.60;5.37;;;;;;;10.71;100.00;98756.66;4109657;28;20714;-81
2023/12/27 01:37:48;;;;;;;5.90;4.47;;;;;;;10.67;100.00;98750.75;4108285;28;20631;-82
2023/12/27 01:39:51;;;;;;;6.23;5.27;;;;;;;10.65;100.00;98752.63;4093424;28;21116;-82
2023/12/27 01:41:54;;;;;;;8.23;4.80;;;;;;;10.64;100.00;98753.53;4118506;28;20773;-83
2023/12/27 01:43:57;;;;;;;6.47;4.60;;;;;;;10.62;100.00;98758.03;4106982;28;20636;-81
2023/12/27 01:46:00;;;;;;;6.47;4.83;;;;;;;10.61;100.00;98758.09;4108129;28;20655;-81
2023/12/27 01:48:04;;;;;;;6.57;5.13;;;;;;;10.61;100.00;98761.53;4093876;28;20644;-81
2023/12/27 01:50:10;;;;;;;6.70;5.03;;;;;;;10.63;100.00;98766.69;4094867;28;20665;-81
2023/12/27 01:52:14;;;;;;;7.80;5.60;;;;;;;10.61;100.00;98753.72;4092560;28;20649;-82
2023/12/27 01:54:17;;;;;;;6.03;4.93;;;;;;;10.60;100.00;98754.69;4103594;28;20651;-81
2023/12/27 01:56:20;;;;;;;6.40;4.77;;;;;;;10.58;100.00;98751.28;4107827;28;20686;-81
2023/12/27 01:58:24;;;;;;;6.93;4.50;;;;;;;10.60;100.00;98757.28;4107223;28;20652;-81
2023/12/27 02:00:26;;;;;;;5.40;4.40;;;;;;;10.60;100.00;98748.59;4089627;28;20698;-83
2023/12/27 02:02:29;;;;;;;5.77;4.67;;;;;;;10.60;100.00;98748.59;4111088;28;20735;-81
2023/12/27 02:04:33;;;;;;;6.17;4.30;;;;;;;10.59;100.00;98747.75;4107569;28;20761;-81
2023/12/27 02:06:38;;;;;;;7.20;4.17;;;;;;;10.60;100.00;98753.81;4091887;28;20653;-83
2023/12/27 02:08:41;;;;;;;4.73;3.37;;;;;;;10.62;100.00;98759.81;4109207;28;20695;-80
2023/12/27 02:10:45;;;;;;;5.50;4.00;;;;;;;10.60;100.00;98759.03;4109163;28;21131;-80
2023/12/27 02:12:47;;;;;;;7.57;4.27;;;;;;;10.60;100.00;98765.09;4121130;28;21245;-80
2023/12/27 02:14:50;;;;;;;6.20;4.80;;;;;;;10.61;100.00;98765.94;4108228;28;20690;-80
2023/12/27 02:16:53;;;;;;;7.90;4.23;;;;;;;10.61;100.00;98765.94;4103742;28;21150;-80
2023/12/27 02:19:22;;;;;;;5.60;4.27;;;;;;;10.61;100.00;98765.94;4106669;28;21263;-81
2023/12/27 02:21:26;;;;;;;9.10;4.90;;;;;;;10.59;100.00;98762.59;4088654;28;20661;-81
2023/12/27 02:23:33;;;;;;;5.80;4.53;;;;;;;10.55;100.00;98754.06;4108004;28;20702;-80
2023/12/27 02:25:37;;;;;;;6.10;4.37;;;;;;;10.55;100.00;98759.28;4090911;28;20653;-81
2023/12/27 02:27:40;;;;;;;8.50;5.20;;;;;;;10.57;100.00;98756.59;4106599;28;21077;-80
2023/12/27 02:29:44;;;;;;;7.17;4.73;;;;;;;10.56;100.00;98747.94;4093288;28;20652;-82
2023/12/27 02:31:47;;;;;;;6.20;4.87;;;;;;;10.55;100.00;98748.84;4105500;28;20732;-81
2023/12/27 02:33:51;;;;;;;6.60;4.90;;;;;;;10.55;100.00;98743.66;4118090;28;20639;-81
2023/12/27 02:35:54;;;;;;;6.13;4.50;;;;;;;10.54;100.00;98741.13;4106474;28;20863;-82
2023/12/27 02:37:58;;;;;;;5.93;4.77;;;;;;;10.56;100.00;98739.28;4105828;28;20648;-81
2023/12/27 02:40:03;;;;;;;6.47;4.70;;;;;;;10.56;100.00;98736.69;4105778;28;20652;-81
2023/12/27 02:42:07;;;;;;;6.80;4.33;;;;;;;10.56;100.00;98734.06;4097768;28;20655;-82
2023/12/27 02:44:10;;;;;;;6.27;4.60;;;;;;;10.55;100.00;98728.00;4122096;28;20685;-81
2023/12/27 02:46:14;;;;;;;8.33;4.73;;;;;;;10.56;100.00;98728.84;4085913;28;20661;-82
2023/12/27 02:48:17;;;;;;;5.80;4.60;;;;;;;10.56;100.00;98734.91;4106341;28;20688;-81
2023/12/27 02:50:21;;;;;;;5.60;4.40;;;;;;;10.57;100.00;98735.72;4091868;28;20813;-81
2023/12/27 02:52:25;;;;;;;5.60;4.57;;;;;;;10.57;100.00;98738.34;4091948;28;21268;-82
2023/12/27 02:54:27;;;;;;;5.97;4.30;;;;;;;10.56;100.00;98741.91;4103173;28;20670;-81
2023/12/27 02:56:30;;;;;;;5.00;4.30;;;;;;;10.56;100.00;98734.91;4102582;28;20741;-81
2023/12/27 02:58:35;;;;;;;5.90;4.20;;;;;;;10.57;100.00;98735.72;4123409;28;21227;-81
2023/12/27 03:00:38;;;;;;;4.97;4.00;;;;;;;10.56;100.00;98726.25;4105682;28;20680;-80
2023/12/27 03:02:42;;;;;;;5.90;4.00;;;;;;;10.54;100.00;98726.34;4107419;28;21379;-82
2023/12/27 03:04:45;;;;;;;6.47;3.93;;;;;;;10.54;100.00;98735.91;4090668;28;20641;-81
2023/12/27 03:06:48;;;;;;;6.37;4.50;;;;;;;10.53;100.00;98723.81;4105552;28;21144;-82
2023/12/27 03:08:53;;;;;;;5.70;4.10;;;;;;;10.51;100.00;98716.09;4116731;28;21298;-81
2023/12/27 03:10:56;;;;;;;5.80;3.97;;;;;;;10.50;100.00;98710.97;4087993;28;20767;-81
2023/12/27 03:12:58;;;;;;;5.80;3.80;;;;;;;10.50;100.00;98711.78;4102479;28;20765;-81
2023/12/27 03:15:03;;;;;;;4.13;3.50;;;;;;;10.49;100.00;98704.06;4093072;28;20660;-82
2023/12/27 03:17:06;;;;;;;6.93;4.00;;;;;;;10.48;100.00;98711.03;4105233;28;21080;-81
2023/12/27 03:19:34;;;;;;;5.17;3.70;;;;;;;10.51;100.00;98707.44;4088487;28;20676;-81
2023/12/27 03:21:38;;;;;;;6.40;3.90;;;;;;;10.52;100.00;98709.09;4120787;28;21062;-80
2023/12/27 03:23:41;;;;;;;5.07;3.33;;;;;;;10.52;100.00;98703.88;4116201;28;20751;-83
2023/12/27 03:25:44;;;;;;;7.60;4.10;;;;;;;10.53;100.00;98700.34;4106895;28;20648;-81
2023/12/27 03:27:47;;;;;;;5.83;3.70;;;;;;;10.52;100.00;98696.88;4105409;28;20758;-81
2023/12/27 03:29:51;;;;;;;6.83;4.00;;;;;;;10.55;100.00;98701.09;4093380;28;20744;-81
2023/12/27 03:31:55;;;;;;;4.90;3.70;;;;;;;10.54;100.00;98699.41;4104519;28;20666;-81
2023/12/27 03:34:10;;;;;;;6.73;3.80;;;;;;;10.53;100.00;98701.19;4088263;29;20649;-80
2023/12/27 03:36:14;;;;;;;6.30;3.90;;;;;;;10.52;100.00;98696.06;4108063;28;20811;-82
2023/12/27 03:38:17;;;;;;;4.50;3.20;;;;;;;10.51;100.00;98710.03;4108574;28;20639;-81
2023/12/27 03:40:20;;;;;;;5.13;3.47;;;;;;;10.50;100.00;98701.34;4105160;28;21229;-83
2023/12/27 03:42:23;;;;;;;5.17;3.83;;;;;;;10.49;100.00;98710.13;4105887;28;21273;-81
2023/12/27 03:44:26;;;;;;;5.70;3.20;;;;;;;10.49;100.00;98696.22;4086735;29;20648;-81
2023/12/27 03:46:30;;;;;;;6.30;4.33;;;;;;;10.49;100.00;98701.44;4089697;28;20953;-82
2023/12/27 03:48:35;;;;;;;5.87;4.00;;;;;;;10.48;100.00;98697.19;4104585;28;20667;-82
2023/12/27 03:50:38;;;;;;;5.40;3.50;;;;;;;10.48;100.00;98694.56;4108157;28;21295;-82
2023/12/27 03:52:43;;;;;;;5.03;3.73;;;;;;;10.46;100.00;98683.38;4087790;28;20712;-80
2023/12/27 03:54:45;;;;;;;8.77;4.07;;;;;;;10.46;100.00;98685.97;4106171;28;20684;-81
2023/12/27 03:57:53;;;;;;;5.40;3.80;;;;;;;10.41;100.00;98680.19;4098231;28;20755;-81
2023/12/27 03:59:56;;;;;;;5.10;3.97;;;;;;;10.41;100.00;98681.03;4121303;28;20654;-82
2023/12/27 04:01:59;;;;;;;7.23;3.90;;;;;;;10.40;100.00;98679.38;4103606;28;20739;-82
2023/12/27 04:04:20;;;;;;;5.83;4.00;;;;;;;10.41;100.00;98682.81;4103034;28;20756;-80
2023/12/27 04:06:23;;;;;;;5.83;3.87;;;;;;;10.39;99.60;98693.31;4103467;28;20672;-81
2023/12/27 04:08:26;;;;;;;5.33;3.33;;;;;;;10.39;99.88;98689.88;4088895;28;20653;-80
2023/12/27 04:10:31;;;;;;;6.30;4.83;;;;;;;10.38;99.69;98689.03;4104487;28;20725;-83
2023/12/27 04:12:35;;;;;;;5.87;4.40;;;;;;;10.38;99.88;98693.41;4087307;28;20669;-81
2023/12/27 04:14:50;;;;;;;7.03;5.10;;;;;;;10.37;99.80;98683.91;4087026;28;20653;-80
2023/12/27 04:16:53;;;;;;;6.97;4.90;;;;;;;10.33;100.00;98685.84;4102050;28;20674;-81
2023/12/27 04:18:56;;;;;;;7.10;5.13;;;;;;;10.32;100.00;98688.56;4108534;28;22355;-80
2023/12/27 04:21:01;;;;;;;7.03;5.20;;;;;;;10.31;100.00;98694.69;4101933;28;20668;-81
2023/12/27 04:23:05;;;;;;;7.30;5.30;;;;;;;10.31;100.00;98693.84;4105867;28;20648;-80
2023/12/27 04:25:20;;;;;;;7.70;5.50;;;;;;;10.28;100.00;98681.81;4102615;28;20739;-81
2023/12/27 04:27:22;;;;;;;5.60;4.50;;;;;;;10.25;100.00;98676.78;4103283;28;20656;-81
2023/12/27 04:29:25;;;;;;;6.27;4.90;;;;;;;10.23;100.00;98677.81;4107471;28;20743;-80
2023/12/27 04:31:29;;;;;;;7.83;4.77;;;;;;;10.22;100.00;98676.13;4104719;28;20640;-81
2023/12/27 04:33:32;;;;;;;6.17;4.20;;;;;;;10.21;100.00;98671.84;4120227;28;20651;-80
2023/12/27 04:35:35;;;;;;;8.60;5.10;;;;;;;10.21;100.00;98677.91;4120276;28;20686;-81
2023/12/27 04:37:40;;;;;;;4.60;4.03;;;;;;;10.21;100.00;98677.06;4105627;28;20644;-82
2023/12/27 04:39:42;;;;;;;6.80;4.77;;;;;;;10.18;100.00;98675.47;4087867;28;20637;-82
2023/12/27 04:41:45;;;;;;;5.53;4.10;;;;;;;10.19;100.00;98678.91;4103997;28;20762;-81
2023/12/27 04:43:48;;;;;;;7.20;5.00;;;;;;;10.17;100.00;98668.56;4105753;28;20702;-82
2023/12/27 04:45:52;;;;;;;7.37;4.90;;;;;;;10.16;100.00;98661.69;4104542;28;21117;-81
2023/12/27 04:47:55;;;;;;;6.90;4.87;;;;;;;10.15;100.00;98659.16;4087591;28;20739;-81
2023/12/27 04:49:57;;;;;;;7.70;5.20;;;;;;;10.17;100.00;98657.31;4117586;28;21560;-80
2023/12/27 04:52:01;;;;;;;7.40;4.83;;;;;;;10.16;100.00;98653.84;4102979;28;20666;-82
2023/12/27 04:54:05;;;;;;;11.07;6.47;;;;;;;10.16;100.00;98659.06;4106419;28;20648;-80
2023/12/27 04:56:09;;;;;;;9.70;5.77;;;;;;;10.15;100.00;98660.00;4104469;28;20788;-81
2023/12/27 04:58:12;;;;;;;8.80;6.40;;;;;;;10.14;99.62;98655.72;4104406;28;21042;-81
2023/12/27 05:00:22;;;;;;;9.97;6.07;;;;;;;10.13;100.00;98658.41;4101624;28;20688;-81
2023/12/27 05:02:26;;;;;;;13.40;6.50;;;;;;;10.11;100.00;98660.28;4105173;28;21011;-80
2023/12/27 05:04:29;;;;;;;9.90;6.33;;;;;;;10.09;100.00;98664.75;4107920;28;20660;-80
2023/12/27 05:06:32;;;;;;;9.83;5.63;;;;;;;10.09;99.89;98667.34;4103808;28;20659;-80
2023/12/27 05:08:35;;;;;;;9.30;5.53;;;;;;;10.08;100.00;98666.50;4120365;28;20658;-81
2023/12/27 05:10:39;;;;;;;10.73;5.60;;;;;;;10.07;100.00;98667.44;4106304;28;20749;-81
2023/12/27 05:12:43;;;;;;;9.93;5.40;;;;;;;10.07;100.00;98671.78;4104855;28;20696;-80
2023/12/27 05:14:46;;;;;;;7.43;5.57;;;;;;;10.07;100.00;98674.41;4087396;28;20728;-81
2023/12/27 05:16:48;;;;;;;7.25;5.65;;;;;;;10.07;100.00;98670.06;4087753;28;21304;-81
2023/12/27 05:18:51;;;;;;;7.50;5.70;;;;;;;10.08;100.00;98673.50;4102662;28;20227;-81
2023/12/27 05:20:55;;;;;;;7.90;5.77;;;;;;;10.07;100.00;98672.66;4101958;28;20657;-80
2023/12/27 05:22:58;;;;;;;9.00;5.43;;;;;;;10.07;100.00;98663.97;4119787;28;20651;-80
2023/12/27 05:25:02;;;;;;;9.07;5.75;;;;;;;10.06;100.00;98668.34;4103083;28;20828;-82
2023/12/27 05:27:06;;;;;;;14.60;5.87;;;;;;;10.03;100.00;98665.94;4093897;28;20343;-82
2023/12/27 05:29:16;;;;;;;7.13;5.43;;;;;;;10.01;100.00;98664.31;4099596;28;20655;-83
2023/12/27 05:31:19;;;;;;;9.00;6.03;;;;;;;10.02;100.00;98677.28;4105981;28;20652;-89
2023/12/27 05:33:23;;;;;;;7.90;5.90;;;;;;;10.02;100.00;98669.44;4104571;28;20759;-89
2023/12/27 05:35:27;;;;;;;12.00;6.50;;;;;;;9.97;100.00;98668.88;4114267;28;20694;-90
2023/12/27 05:37:30;;;;;;;9.13;6.50;;;;;;;9.95;100.00;98670.75;4114185;28;20743;-85
2023/12/27 05:39:33;;;;;;;8.03;6.40;;;;;;;9.94;100.00;98668.22;4105576;28;21222;-90
2023/12/27 05:41:36;;;;;;;11.82;5.55;;;;;;;9.90;100.00;98659.69;4084012;28;20652;-88
2023/12/27 05:43:41;;;;;;;8.67;6.70;;;;;;;9.88;100.00;98656.34;4098568;28;20307;-86
2023/12/27 05:45:43;;;;;;;9.68;6.15;;;;;;;9.85;100.00;98660.88;4102598;28;20663;-89
2023/12/27 05:47:48;;;;;;;7.87;5.63;;;;;;;9.83;100.00;98656.69;4105293;28;20602;-89
2023/12/27 05:49:51;;;;;;;9.37;5.40;;;;;;;9.80;99.83;98652.47;4108068;28;20764;-89
2023/12/27 05:51:54;;;;;;;7.80;5.43;;;;;;;9.79;99.75;98655.16;4104104;28;20751;-85
2023/12/27 05:53:57;;;;;;;8.50;5.40;;;;;;;9.77;99.66;98657.03;4107016;28;20657;-90
2023/12/27 05:55:59;;;;;;;6.90;5.43;;;;;;;9.76;100.00;98661.41;4108660;28;21064;-89
2023/12/27 05:58:03;;;;;;;8.43;5.70;;;;;;;9.75;100.00;98654.50;4108453;28;20260;-89
2023/12/27 06:00:08;;;;;;;9.03;5.40;;;;;;;9.74;100.00;98654.59;4108506;28;20770;-85
2023/12/27 06:02:14;;;;;;;9.13;5.00;;;;;;;9.71;99.09;98646.94;4121330;28;20653;-88
2023/12/27 06:04:19;;;;;;;8.97;6.43;;;;;;;9.68;99.52;98627.16;4107733;28;20655;-90
2023/12/27 06:06:22;;;;;;;23.38;13.52;;;;;;;9.66;98.89;98617.72;4110455;28;20683;-90
2023/12/27 06:08:25;;;;;;;14.63;9.60;;;;;;;9.65;98.80;98616.03;4105078;28;20224;-92
2023/12/27 06:10:28;;;;;;;10.50;6.50;;;;;;;9.64;99.17;98625.63;4100412;28;20758;-89
2023/12/27 06:12:31;;;;;;;8.70;6.20;;;;;;;9.63;100.00;98629.16;4111551;28;20654;-91
2023/12/27 06:14:34;;;;;;;7.43;5.40;;;;;;;9.62;99.78;98622.28;4109679;28;20678;-91
2023/12/27 06:16:39;;;;;;;7.17;4.90;;;;;;;9.60;99.54;98621.50;4091586;28;20661;-91
2023/12/27 06:18:42;;;;;;;7.40;4.80;;;;;;;9.61;100.00;98619.75;4108375;28;20652;-88
2023/12/27 06:20:46;;;;;;;6.63;4.90;;;;;;;9.61;100.00;98614.56;4109627;28;20655;-89
2023/12/27 06:22:49;;;;;;;9.27;4.63;;;;;;;9.59;99.90;98617.25;4111980;28;20645;-87
2023/12/27 06:24:52;;;;;;;6.23;4.33;;;;;;;9.58;99.40;98609.53;4109968;28;21192;-91
2023/12/27 06:26:55;;;;;;;7.67;5.13;;;;;;;9.57;99.28;98610.44;4125249;28;20713;-92
2023/12/27 06:28:57;;;;;;;9.07;5.50;;;;;;;9.54;99.24;98608.84;4107647;28;20743;-91
2023/12/27 06:31:00;;;;;;;6.33;4.77;;;;;;;9.54;99.79;98624.44;4109231;28;21275;-90
2023/12/27 06:33:05;;;;;;;6.37;4.40;;;;;;;9.49;100.00;98612.63;4108173;28;20664;-91
2023/12/27 06:35:09;;;;;;;18.23;5.30;;;;;;;9.45;100.00;98608.50;4101345;28;20648;-89
2023/12/27 06:37:12;;;;;;;6.37;4.63;;;;;;;9.45;100.00;98603.31;4111594;28;20686;-92
2023/12/27 06:39:23;;;;;;;5.60;4.57;;;;;;;9.45;100.00;98598.09;4107250;28;20675;-91
2023/12/27 06:41:27;;;;;;;7.10;4.90;;;;;;;9.45;100.00;98590.28;4105803;28;20755;-82
2023/12/27 06:43:31;;;;;;;5.73;4.00;;;;;;;9.38;99.29;98587.19;4091801;28;20652;-81
2023/12/27 06:45:36;;;;;;;6.43;4.77;;;;;;;9.34;99.56;98595.25;4089213;28;20655;-79
2023/12/27 06:47:39;;;;;;;8.17;5.00;;;;;;;9.32;99.64;98596.25;4093794;28;21295;-84
2023/12/27 06:49:46;;;;;;;5.83;4.10;;;;;;;9.30;98.99;98601.56;4109002;28;20675;-82
2023/12/27 06:51:49;;;;;;;9.10;4.70;;;;;;;9.27;99.33;98601.72;4105213;28;20636;-82
2023/12/27 06:53:53;;;;;;;4.60;3.33;;;;;;;9.25;97.61;98598.38;4101092;28;20228;-82
2023/12/27 06:55:56;;;;;;;7.10;4.00;;;;;;;9.22;98.35;98608.13;4096631;28;21087;-80
2023/12/27 06:57:59;;;;;;;4.68;3.22;;;;;;;9.21;97.25;98609.84;4112598;28;20706;-83
2023/12/27 07:00:02;;;;;;;5.10;3.73;;;;;;;9.22;98.71;98615.91;4098551;28;20229;-83
2023/12/27 07:02:07;;;;;;;9.03;4.90;;;;;;;9.22;98.64;98615.91;4119915;28;21334;-82
2023/12/27 07:04:10;;;;;;;11.83;5.57;;;;;;;9.26;99.29;98614.81;4107889;28;20740;-80
2023/12/27 07:06:15;;;;;;;8.50;5.53;;;;;;;9.26;100.00;98622.63;4123284;28;20710;-83
2023/12/27 07:08:18;;;;;;;9.20;5.50;;;;;;;9.27;99.99;98616.50;4123337;28;20764;-82
2023/12/27 07:10:20;;;;;;;12.73;5.97;;;;;;;9.28;99.49;98626.00;4088997;28;20649;-80
2023/12/27 07:12:23;;;;;;;8.47;5.50;;;;;;;9.28;99.38;98621.63;4089759;28;20637;-80
2023/12/27 07:14:27;;;;;;;11.93;5.80;;;;;;;9.28;99.81;98624.22;4111324;28;21069;-79
2023/12/27 07:16:29;;;;;;;7.90;5.27;;;;;;;9.27;99.95;98625.13;4107630;28;20649;-80
2023/12/27 07:18:32;;;;;;;13.73;5.73;;;;;;;9.21;99.59;98627.25;4110081;28;20659;-80
2023/12/27 07:20:36;;;;;;;10.10;5.67;;;;;;;9.17;99.91;98626.59;4108155;28;20667;-82
2023/12/27 07:22:39;;;;;;;8.77;5.77;;;;;;;9.15;98.73;98632.78;4107886;28;20681;-80
2023/12/27 07:24:42;;;;;;;3.90;2.90;;;;;;;9.12;97.98;98630.34;4104172;28;20703;-83
2023/12/27 07:26:45;;;;;;;6.67;3.80;;;;;;;9.05;97.94;98616.84;4106127;28;20722;-82
2023/12/27 07:28:49;;;;;;;8.30;4.73;;;;;;;9.02;97.83;98614.41;4105388;28;21267;-79
2023/12/27 07:30:51;;;;;;;13.27;7.07;;;;;;;9.02;98.77;98621.34;4108465;28;21080;-82
2023/12/27 07:32:54;;;;;;;10.60;5.63;;;;;;;9.03;98.25;98620.44;4104725;28;20739;-81
2023/12/27 07:34:58;;;;;;;15.27;6.00;;;;;;;9.05;98.89;98616.84;4104311;28;20242;-81
2023/12/27 07:37:01;;;;;;;11.63;6.70;;;;;;;9.09;99.14;98626.13;4100802;28;20656;-81
2023/12/27 07:39:09;;;;;;;8.70;6.32;;;;;;;9.16;99.37;98624.88;4104799;28;20853;-81
2023/12/27 07:41:12;;;;;;;8.17;5.37;;;;;;;9.25;100.00;98626.16;4087171;28;20231;-82
2023/12/27 07:43:15;;;;;;;10.43;6.00;;;;;;;9.29;99.85;98623.31;4109168;28;21068;-82
2023/12/27 07:45:21;;;;;;;11.03;5.20;;;;;;;9.32;99.54;98622.28;4085622;28;20233;-81
2023/12/27 07:47:24;;;;;;;6.10;4.53;;;;;;;9.34;99.49;98621.28;4099130;28;20650;-82
2023/12/27 07:49:27;;;;;;;6.10;4.63;;;;;;;9.36;99.45;98627.25;4088496;28;20673;-84
2023/12/27 07:51:30;;;;;;;5.63;4.37;;;;;;;9.37;99.84;98615.91;4100455;28;21316;-81
2023/12/27 07:53:34;;;;;;;7.50;5.47;;;;;;;9.37;99.72;98626.31;4104297;28;20643;-81
2023/12/27 07:55:39;;;;;;;6.93;3.97;;;;;;;9.39;100.00;98624.47;4104855;28;20221;-84
2023/12/27 07:57:43;;;;;;;5.83;4.63;;;;;;;9.39;99.86;98624.47;4107278;28;20751;-82
2023/12/27 07:59:46;;;;;;;7.80;6.07;;;;;;;9.43;99.68;98628.59;4104813;28;21297;-82
2023/12/27 08:01:49;;;;;;;7.73;5.60;;;;;;;9.43;99.78;98636.41;4103763;28;20660;-81
2023/12/27 08:03:52;;;;;;;5.70;4.70;;;;;;;9.44;99.31;98633.72;4107315;28;20932;-81
2023/12/27 08:05:55;;;;;;;5.20;4.10;;;;;;;9.46;99.71;98639.66;4106523;28;20663;-82
2023/12/27 08:07:58;;;;;;;4.80;3.93;;;;;;;9.47;99.10;98643.09;4102541;28;20644;-82
2023/12/27 08:10:02;;;;;;;7.07;3.60;;;;;;;9.48;98.93;98644.78;4103695;28;20660;-82
2023/12/27 08:12:07;;;;;;;4.78;3.72;;;;;;;9.49;98.73;98641.28;4095505;28;21511;-82
2023/12/27 08:14:10;;;;;;;5.63;3.43;;;;;;;9.50;99.12;98633.38;4099717;28;20244;-84
2023/12/27 08:16:13;;;;;;;4.20;2.70;;;;;;;9.51;98.55;98622.03;4103477;28;20747;-85
2023/12/27 08:18:16;;;;;;;4.00;3.10;;;;;;;9.53;99.38;98625.41;4086800;28;20652;-83
2023/12/27 08:20:20;;;;;;;4.67;2.83;;;;;;;9.57;99.17;98628.66;4099918;28;20640;-82
2023/12/27 08:22:28;;;;;;;3.83;2.70;;;;;;;9.59;98.98;98634.63;4087804;28;20695;-85
2023/12/27 08:24:30;;;;;;;3.70;2.73;;;;;;;9.65;99.63;98629.06;4103551;28;21414;-86
2023/12/27 08:26:33;;;;;;;7.50;3.20;;;;;;;9.64;99.11;98633.44;4104262;28;20687;-87
2023/12/27 08:28:38;;;;;;;4.17;3.40;;;;;;;9.66;99.17;98633.34;4110986;28;21269;-93
2023/12/27 08:30:42;;;;;;;6.17;4.67;;;;;;;9.67;99.33;98630.66;4106634;28;20659;-87
2023/12/27 08:32:45;;;;;;;5.77;4.40;;;;;;;9.72;99.26;98644.25;4090443;28;20649;-87
2023/12/27 08:34:49;;;;;;;7.13;5.70;;;;;;;9.73;99.45;98648.56;4107876;28;20719;-86
2023/12/27 08:36:52;;;;;;;7.67;5.50;;;;;;;9.77;99.28;98646.59;4085890;28;20684;-86
2023/12/27 08:38:55;;;;;;;6.90;4.70;;;;;;;9.78;98.82;98640.47;4120987;28;20639;-86
2023/12/27 08:40:58;;;;;;;7.30;5.30;;;;;;;9.80;99.25;98636.00;4100745;28;20743;-84
2023/12/27 08:43:02;;;;;;;12.60;5.60;;;;;;;9.81;99.58;98642.91;4106834;28;20680;-86
2023/12/27 08:45:07;;;;;;;6.13;4.70;;;;;;;9.85;99.65;98646.09;4119013;28;20643;-85
2023/12/27 08:47:10;;;;;;;6.35;5.05;;;;;;;9.89;99.48;98638.94;4106296;28;20640;-84
2023/12/27 08:49:14;;;;;;;5.63;4.90;;;;;;;10.01;99.74;98633.06;4107937;28;20276;-85
2023/12/27 08:51:17;;;;;;;7.70;5.28;;;;;;;10.02;99.95;98625.16;4105085;28;20268;-87
2023/12/27 08:53:20;;;;;;;10.90;7.70;;;;;;;10.06;99.38;98618.03;4101730;28;20224;-84
2023/12/27 08:55:24;;;;;;;14.20;9.13;;;;;;;10.04;100.00;98625.06;4099837;28;20664;-87
2023/12/27 08:57:27;;;;;;;13.70;7.43;;;;;;;10.08;99.49;98629.19;4119483;28;22210;-83
2023/12/27 08:59:35;;;;;;;8.37;6.20;;;;;;;10.09;100.00;98631.69;4105372;28;20653;-90
2023/12/27 09:01:39;;;;;;;5.50;4.13;;;;;;;10.11;100.00;98629.84;4088955;28;20743;-92
2023/12/27 09:03:43;;;;;;;6.13;4.83;;;;;;;10.14;99.91;98623.63;4092676;28;20652;-88
2023/12/27 09:05:46;;;;;;;8.17;4.83;;;;;;;10.16;99.55;98624.34;4102662;28;20658;-91
2023/12/27 09:07:49;;;;;;;5.20;3.77;;;;;;;10.20;99.44;98613.66;4086427;28;20662;-90
2023/12/27 09:09:54;;;;;;;6.10;3.43;;;;;;;10.28;99.89;98608.00;4117552;28;21015;-89
2023/12/27 09:12:02;;;;;;;7.03;4.47;;;;;;;10.35;98.52;98587.53;4094914;28;20660;-87
2023/12/27 09:14:06;;;;;;;8.60;5.70;;;;;;;10.40;99.45;98587.25;4113864;28;20663;-87
2023/12/27 09:16:10;;;;;;;6.20;4.93;;;;;;;10.40;98.93;98592.47;4109782;28;21249;-93
2023/12/27 09:18:14;;;;;;;6.20;4.03;;;;;;;10.40;98.69;98588.13;4125803;28;20635;-91
2023/12/27 09:20:18;;;;;;;6.83;5.30;;;;;;;10.43;98.21;98581.84;4105633;28;20762;-91
2023/12/27 09:22:21;;;;;;;8.57;5.80;;;;;;;10.47;98.61;98578.16;4099877;28;20687;-90
2023/12/27 09:24:24;;;;;;;12.07;5.20;;;;;;;10.48;98.67;98579.84;4103049;28;20675;-88
2023/12/27 09:26:28;;;;;;;5.50;3.80;;;;;;;10.52;97.36;98576.09;4116982;28;20658;-90
2023/12/27 09:28:31;;;;;;;6.20;3.40;;;;;;;10.58;96.36;98576.56;4108056;28;20643;-88
2023/12/27 09:30:34;;;;;;;5.73;2.90;;;;;;;10.60;95.52;98579.06;4100912;28;21016;-85
2023/12/27 09:32:37;;;;;;;5.03;2.37;;;;;;;10.59;93.52;98583.44;4083425;28;20726;-87
2023/12/27 09:34:42;;;;;;;18.97;11.07;;;;;;;10.70;94.86;98586.25;4104675;28;21338;-85
2023/12/27 09:36:45;;;;;;;13.40;7.43;;;;;;;10.83;94.65;98589.78;4087629;28;20716;-88
2023/12/27 09:38:48;;;;;;;5.90;3.27;;;;;;;10.91;93.56;98593.59;4104937;28;21090;-84
2023/12/27 09:40:51;;;;;;;5.33;2.27;;;;;;;10.98;93.53;98596.69;4106760;28;20656;-84
2023/12/27 09:42:54;;;;;;;5.17;2.37;;;;;;;11.12;93.71;98596.66;4105903;28;20698;-89